Time;durP1;ratioP1;P1;durP2;ratioP2;P2;SDS_P1;SDS_P2;PMS_P1;PMS_P2;Temp;Humidity;BMP_temperature;BMP_pressure;BME280_temperature;BME280_humidity;BME280_pressure;Samples;Min_cycle;Max_cycle;Signal;HPM_P1;HPM_P2
2022/02/01 00:01:07;;;;;;;5.80;3.50;;;;;;;;;;6204080;23;20187;-90
2022/02/01 00:04:19;;;;;;;6.53;3.07;;;;;;;;;;6205446;23;20629;-88
2022/02/01 00:07:36;;;;;;;5.20;3.33;;;;;;;;;;6202121;23;20167;-92
2022/02/01 00:10:51;;;;;;;5.80;3.80;;;;;;;;;;6203253;23;20184;-92
2022/02/01 00:14:32;;;;;;;5.87;3.80;;;;;;;;;;6202303;23;20260;-90
2022/02/01 00:17:54;;;;;;;5.37;3.57;;;;;;;;;;6202824;23;20160;-92
2022/02/01 00:35:02;;;;;;;7.03;4.00;;;;;;;;;;6203075;23;20252;-92
2022/02/01 00:38:10;;;;;;;6.00;3.87;;;;;;;;;;6201504;23;20177;-92
2022/02/01 00:41:17;;;;;;;5.97;3.93;;;;;;;;;;6201489;23;20168;-92
2022/02/01 00:44:22;;;;;;;6.17;3.90;;;;;;;;;;6203818;23;20254;-90
2022/02/01 00:47:28;;;;;;;6.53;3.73;;;;;;;;;;6202694;23;20203;-91
2022/02/01 00:50:34;;;;;;;5.47;3.80;;;;;;;;;;6201452;23;20540;-91
2022/02/01 00:53:49;;;;;;;5.60;3.37;;;;;;;;;;6201644;23;20239;-90
2022/02/01 01:02:45;;;;;;;6.13;3.13;;;;;;;;;;6164254;22;20200;-89
2022/02/01 01:44:58;;;;;;;3.73;2.70;;;;;;;;;;6201294;23;20623;-89
2022/02/01 01:55:06;;;;;;;4.10;2.83;;;;;;;;;;6127596;23;20172;-92
2022/02/01 01:58:12;;;;;;;3.53;2.50;;;;;;;;;;6203521;23;20176;-89
2022/02/01 02:01:17;;;;;;;4.13;2.63;;;;;;;;;;6201665;23;20175;-90
2022/02/01 02:04:22;;;;;;;4.10;2.70;;;;;;;;;;6202880;23;20164;-90
2022/02/01 02:07:31;;;;;;;4.77;3.10;;;;;;;;;;6203278;23;20228;-91
2022/02/01 02:10:46;;;;;;;5.03;2.90;;;;;;;;;;6202724;23;20176;-90
2022/02/01 02:17:15;;;;;;;4.60;2.90;;;;;;;;;;6201828;23;20183;-90
2022/02/01 02:20:24;;;;;;;3.83;2.63;;;;;;;;;;6202785;23;20216;-90
2022/02/01 02:23:31;;;;;;;3.97;2.50;;;;;;;;;;6202111;23;20258;-88
2022/02/01 02:26:36;;;;;;;3.63;2.40;;;;;;;;;;6203276;23;20171;-90
2022/02/01 02:29:42;;;;;;;3.67;2.53;;;;;;;;;;6204832;23;20192;-88
2022/02/01 02:32:47;;;;;;;3.90;3.10;;;;;;;;;;6204237;23;20156;-90
2022/02/01 02:36:05;;;;;;;3.40;2.50;;;;;;;;;;6202318;23;20167;-89
2022/02/01 02:39:23;;;;;;;4.37;2.60;;;;;;;;;;6201535;23;20179;-91
2022/02/01 02:45:03;;;;;;;4.40;2.67;;;;;;;;;;6202629;23;20169;-90
2022/02/01 02:45:53;;;;;;;4.00;2.50;;;;;;;;;;6202309;23;20216;-89
2022/02/01 02:48:59;;;;;;;4.47;2.57;;;;;;;;;;6202827;23;20240;-91
2022/02/01 02:52:05;;;;;;;3.57;2.23;;;;;;;;;;6202255;23;20172;-88
2022/02/01 02:55:12;;;;;;;3.73;2.60;;;;;;;;;;6200740;23;20262;-88
2022/02/01 02:58:17;;;;;;;3.93;2.60;;;;;;;;;;6201884;23;20176;-92
2022/02/01 03:01:22;;;;;;;5.10;2.77;;;;;;;;;;6202223;23;20167;-90
2022/02/01 03:04:28;;;;;;;3.27;2.30;;;;;;;;;;6200881;23;20180;-88
2022/02/01 03:07:34;;;;;;;3.50;2.60;;;;;;;;;;6201450;23;20156;-90
2022/02/01 03:10:43;;;;;;;5.63;2.70;;;;;;;;;;6203040;23;20176;-91
2022/02/01 03:13:54;;;;;;;4.23;2.80;;;;;;;;;;6202362;23;20187;-90
2022/02/01 03:17:15;;;;;;;3.30;2.70;;;;;;;;;;6202549;23;20195;-91
2022/02/01 03:20:19;;;;;;;3.77;2.60;;;;;;;;;;6203099;23;20247;-89
2022/02/01 03:23:25;;;;;;;3.33;2.60;;;;;;;;;;6200917;23;20286;-92
2022/02/01 03:26:31;;;;;;;4.30;2.40;;;;;;;;;;6201674;23;20180;-92
2022/02/01 03:29:40;;;;;;;3.23;2.33;;;;;;;;;;6201873;23;20163;-89
2022/02/01 03:32:45;;;;;;;3.10;2.23;;;;;;;;;;6200975;23;20156;-91
2022/02/01 03:35:59;;;;;;;4.63;3.00;;;;;;;;;;6201868;23;20287;-89
2022/02/01 03:39:04;;;;;;;3.93;2.80;;;;;;;;;;6200266;23;20235;-90
2022/02/01 03:42:12;;;;;;;3.90;2.60;;;;;;;;;;6200271;23;20176;-90
2022/02/01 03:45:17;;;;;;;4.53;2.83;;;;;;;;;;6199610;23;20172;-91
2022/02/01 03:48:22;;;;;;;4.57;2.97;;;;;;;;;;6201979;23;20160;-91
2022/02/01 03:51:27;;;;;;;5.83;3.47;;;;;;;;;;6201696;23;20253;-90
2022/02/01 03:54:33;;;;;;;4.80;3.30;;;;;;;;;;6201051;23;20195;-89
2022/02/01 03:57:39;;;;;;;4.47;3.10;;;;;;;;;;6200488;23;20183;-93
2022/02/01 04:00:44;;;;;;;4.50;2.70;;;;;;;;;;6200571;23;20180;-89
2022/02/01 04:03:50;;;;;;;4.20;2.70;;;;;;;;;;6199021;23;20243;-91
2022/02/01 04:06:55;;;;;;;3.83;2.60;;;;;;;;;;6199016;23;20179;-92
2022/02/01 04:10:01;;;;;;;7.93;2.93;;;;;;;;;;6198568;23;20219;-91
2022/02/01 04:13:07;;;;;;;3.57;2.20;;;;;;;;;;6200236;23;20175;-89
2022/02/01 04:16:12;;;;;;;2.97;2.00;;;;;;;;;;6200074;23;20171;-89
2022/02/01 04:19:17;;;;;;;2.17;1.47;;;;;;;;;;6200190;23;20175;-90
2022/02/01 04:22:26;;;;;;;4.17;1.80;;;;;;;;;;6199422;23;20618;-89
2022/02/01 04:25:31;;;;;;;5.50;2.20;;;;;;;;;;6199974;23;20223;-90
2022/02/01 04:28:37;;;;;;;7.13;1.90;;;;;;;;;;6200379;23;20499;-89
2022/02/01 04:31:43;;;;;;;5.87;2.37;;;;;;;;;;6199544;23;20231;-89
2022/02/01 04:35:00;;;;;;;4.33;2.30;;;;;;;;;;6199798;23;20226;-88
2022/02/01 04:38:05;;;;;;;3.60;2.00;;;;;;;;;;6200358;23;20184;-90
2022/02/01 04:41:10;;;;;;;2.77;2.03;;;;;;;;;;6199103;23;20168;-89
2022/02/01 04:44:16;;;;;;;4.57;2.17;;;;;;;;;;6200503;23;20160;-91
2022/02/01 04:47:22;;;;;;;3.03;2.17;;;;;;;;;;6199526;23;20236;-89
2022/02/01 04:50:28;;;;;;;3.30;2.03;;;;;;;;;;6200373;23;20207;-87
2022/02/01 04:53:34;;;;;;;4.10;2.13;;;;;;;;;;6200776;23;20604;-89
2022/02/01 04:56:39;;;;;;;3.57;2.10;;;;;;;;;;6199787;23;20235;-91
2022/02/01 04:59:46;;;;;;;4.10;2.33;;;;;;;;;;6200508;23;20172;-91
2022/02/01 05:02:58;;;;;;;3.67;2.10;;;;;;;;;;6200634;23;20628;-91
2022/02/01 05:06:08;;;;;;;3.47;2.00;;;;;;;;;;6199388;23;20237;-88
2022/02/01 05:09:13;;;;;;;4.30;2.30;;;;;;;;;;6200422;23;20160;-89
2022/02/01 05:12:18;;;;;;;4.77;2.60;;;;;;;;;;6200063;23;20192;-90
2022/02/01 05:15:25;;;;;;;3.80;2.10;;;;;;;;;;6199951;23;20254;-90
2022/02/01 05:18:36;;;;;;;6.33;2.40;;;;;;;;;;6200271;23;20187;-90
2022/02/01 05:21:46;;;;;;;3.60;2.30;;;;;;;;;;6201353;23;20167;-89
2022/02/01 05:24:54;;;;;;;7.00;2.77;;;;;;;;;;6202394;23;20246;-89
2022/02/01 05:28:00;;;;;;;5.40;2.90;;;;;;;;;;6201777;23;20172;-88
2022/02/01 05:31:08;;;;;;;5.60;3.10;;;;;;;;;;6202078;23;20167;-90
2022/02/01 05:34:16;;;;;;;4.57;2.67;;;;;;;;;;6202011;23;20239;-89
2022/02/01 05:37:21;;;;;;;7.47;3.20;;;;;;;;;;6202007;23;20210;-90
2022/02/01 05:40:27;;;;;;;4.37;2.73;;;;;;;;;;6201916;23;20232;-89
2022/02/01 05:43:33;;;;;;;4.63;2.80;;;;;;;;;;6202137;23;20175;-90
2022/02/01 05:46:41;;;;;;;6.33;3.40;;;;;;;;;;6202339;23;20204;-92
2022/02/01 05:49:49;;;;;;;5.77;3.30;;;;;;;;;;6202961;23;20172;-90
2022/02/01 05:52:54;;;;;;;8.23;3.07;;;;;;;;;;6204882;23;20180;-90
2022/02/01 05:55:59;;;;;;;7.07;3.53;;;;;;;;;;6202998;23;20192;-93
2022/02/01 05:59:05;;;;;;;8.53;3.60;;;;;;;;;;6203895;23;20175;-88
2022/02/01 06:02:17;;;;;;;8.40;4.07;;;;;;;;;;6202089;23;20180;-89
2022/02/01 06:05:23;;;;;;;9.73;3.80;;;;;;;;;;6204264;23;20201;-92
2022/02/01 06:08:28;;;;;;;11.80;4.63;;;;;;;;;;6205121;23;20168;-92
2022/02/01 06:11:33;;;;;;;10.87;5.27;;;;;;;;;;6204308;23;20190;-90
2022/02/01 06:14:39;;;;;;;12.50;5.50;;;;;;;;;;6204782;23;20191;-90
2022/02/01 06:21:06;;;;;;;12.00;5.60;;;;;;;;;;6206449;23;20247;-90
2022/02/01 06:24:17;;;;;;;12.40;5.83;;;;;;;;;;6204852;23;20171;-88
2022/02/01 06:27:24;;;;;;;15.77;6.33;;;;;;;;;;6204090;23;20188;-90
2022/02/01 06:30:29;;;;;;;17.97;6.33;;;;;;;;;;6206114;23;20215;-92
2022/02/01 06:33:40;;;;;;;13.97;6.27;;;;;;;;;;6204707;23;20152;-89
2022/02/01 06:36:48;;;;;;;14.50;6.47;;;;;;;;;;6204717;23;20196;-89
2022/02/01 06:39:53;;;;;;;16.17;7.10;;;;;;;;;;6207161;23;20176;-89
2022/02/01 06:42:58;;;;;;;25.80;10.17;;;;;;;;;;6204993;23;20171;-87
2022/02/01 06:46:04;;;;;;;10.10;5.70;;;;;;;;;;6203058;23;20167;-90
2022/02/01 06:49:13;;;;;;;16.20;7.07;;;;;;;;;;6202797;23;20175;-87
2022/02/01 06:52:23;;;;;;;17.30;7.17;;;;;;;;;;6206387;23;20179;-90
2022/02/01 06:55:44;;;;;;;13.50;6.20;;;;;;;;;;6204588;23;20199;-91
2022/02/01 06:58:49;;;;;;;17.30;6.73;;;;;;;;;;6205771;23;20179;-89
2022/02/01 07:01:54;;;;;;;19.50;7.27;;;;;;;;;;6204385;23;20220;-87
2022/02/01 07:05:02;;;;;;;19.07;6.70;;;;;;;;;;6203337;23;20167;-89
2022/02/01 07:08:08;;;;;;;19.37;6.87;;;;;;;;;;6201348;23;20172;-88
2022/02/01 07:11:13;;;;;;;12.97;5.63;;;;;;;;;;6205256;23;20219;-92
2022/02/01 07:14:19;;;;;;;12.00;5.17;;;;;;;;;;6204446;23;20167;-91
2022/02/01 07:17:24;;;;;;;10.47;4.93;;;;;;;;;;6203988;23;20163;-92
2022/02/01 07:20:35;;;;;;;13.97;5.40;;;;;;;;;;6205165;23;20179;-90
2022/02/01 07:23:43;;;;;;;17.73;7.07;;;;;;;;;;6206845;23;20167;-90
2022/02/01 07:26:55;;;;;;;16.33;6.97;;;;;;;;;;6206174;23;20168;-90
2022/02/01 07:30:02;;;;;;;13.50;5.57;;;;;;;;;;6206034;23;20167;-92
2022/02/01 07:33:08;;;;;;;12.63;5.43;;;;;;;;;;6206926;23;20163;-91
2022/02/01 07:36:17;;;;;;;9.40;4.80;;;;;;;;;;6206329;23;20256;-90
2022/02/01 07:39:25;;;;;;;14.23;5.57;;;;;;;;;;6206454;23;20152;-89
2022/02/01 07:42:57;;;;;;;13.27;5.37;;;;;;;;;;6206336;23;20203;-91
2022/02/01 07:46:06;;;;;;;11.87;5.63;;;;;;;;;;6205782;23;20155;-90
2022/02/01 07:49:17;;;;;;;11.70;4.93;;;;;;;;;;6206345;23;20187;-93
2022/02/01 07:52:25;;;;;;;10.50;4.50;;;;;;;;;;6203287;23;20171;-92
2022/02/01 07:55:30;;;;;;;9.07;5.10;;;;;;;;;;6203738;23;20256;-91
2022/02/01 07:58:37;;;;;;;11.23;4.77;;;;;;;;;;6206693;23;20179;-91
2022/02/01 08:01:42;;;;;;;10.83;4.70;;;;;;;;;;6204151;23;20164;-92
2022/02/01 08:04:47;;;;;;;8.47;4.33;;;;;;;;;;6201700;23;20192;-92
2022/02/01 08:07:59;;;;;;;12.63;4.93;;;;;;;;;;6208455;23;20156;-91
2022/02/01 08:11:09;;;;;;;9.53;3.93;;;;;;;;;;6204015;23;20219;-90
2022/02/01 08:15:12;;;;;;;8.47;3.70;;;;;;;;;;6206398;23;20175;-92
2022/02/01 08:18:16;;;;;;;9.60;4.00;;;;;;;;;;6204928;23;20235;-92
2022/02/01 08:21:27;;;;;;;7.37;4.00;;;;;;;;;;6206061;23;20212;-91
2022/02/01 08:24:36;;;;;;;8.93;4.30;;;;;;;;;;6207517;23;20221;-91
2022/02/01 08:27:43;;;;;;;7.63;4.00;;;;;;;;;;6205714;23;20195;-91
2022/02/01 08:30:50;;;;;;;10.37;3.87;;;;;;;;;;6202778;23;20163;-92
2022/02/01 08:33:58;;;;;;;10.30;4.27;;;;;;;;;;6203491;23;20151;-91
2022/02/01 08:37:04;;;;;;;12.80;5.30;;;;;;;;;;6202423;23;20179;-90
2022/02/01 08:40:16;;;;;;;11.17;4.77;;;;;;;;;;6205091;23;20164;-92
2022/02/01 08:43:22;;;;;;;12.00;5.10;;;;;;;;;;6205349;23;20251;-91
2022/02/01 08:46:28;;;;;;;11.70;4.60;;;;;;;;;;6201900;23;20171;-92
2022/02/01 08:49:34;;;;;;;12.30;5.17;;;;;;;;;;6205152;23;20151;-89
2022/02/01 08:52:44;;;;;;;12.73;4.93;;;;;;;;;;6203589;23;20641;-91
2022/02/01 08:56:06;;;;;;;13.30;5.10;;;;;;;;;;6206305;23;20199;-91
2022/02/01 08:59:12;;;;;;;13.80;5.53;;;;;;;;;;6206877;23;20192;-92
2022/02/01 09:05:38;;;;;;;15.23;6.00;;;;;;;;;;6206580;23;20234;-92
2022/02/01 09:12:07;;;;;;;11.20;5.23;;;;;;;;;;6206215;23;20191;-93
2022/02/01 09:23:46;;;;;;;15.37;6.10;;;;;;;;;;6206454;23;20228;-93
2022/02/01 09:26:53;;;;;;;15.20;6.67;;;;;;;;;;6206359;23;20221;-92
2022/02/01 09:33:35;;;;;;;13.33;6.43;;;;;;;;;;6205226;23;20183;-92
2022/02/01 09:36:41;;;;;;;21.17;7.30;;;;;;;;;;6203171;23;20215;-91
2022/02/01 09:39:46;;;;;;;17.00;7.27;;;;;;;;;;6203480;23;20235;-90
2022/02/01 09:42:51;;;;;;;20.33;7.70;;;;;;;;;;6201861;23;20175;-91
2022/02/01 09:45:58;;;;;;;15.97;6.87;;;;;;;;;;6202101;23;20151;-91
2022/02/01 09:49:11;;;;;;;20.33;7.20;;;;;;;;;;6204331;23;20213;-89
2022/02/01 09:52:21;;;;;;;17.57;7.20;;;;;;;;;;6203735;23;20215;-89
2022/02/01 09:55:29;;;;;;;21.67;8.70;;;;;;;;;;6202893;23;20242;-89
2022/02/01 09:58:35;;;;;;;23.20;9.33;;;;;;;;;;6202499;23;20167;-90
2022/02/01 10:01:44;;;;;;;20.60;8.23;;;;;;;;;;6203830;23;20264;-90
2022/02/01 10:05:02;;;;;;;20.60;8.63;;;;;;;;;;6202428;23;20213;-91
2022/02/01 10:08:08;;;;;;;18.87;7.67;;;;;;;;;;6203639;23;20168;-90
2022/02/01 10:11:13;;;;;;;22.73;8.13;;;;;;;;;;6208107;23;20195;-92
2022/02/01 10:14:25;;;;;;;23.50;7.93;;;;;;;;;;6205141;23;20168;-92
2022/02/01 10:17:33;;;;;;;20.57;7.50;;;;;;;;;;6204054;23;20664;-90
2022/02/01 10:20:42;;;;;;;17.20;7.20;;;;;;;;;;6202595;23;20160;-90
2022/02/01 10:23:47;;;;;;;15.23;6.43;;;;;;;;;;6203519;23;20194;-91
2022/02/01 10:26:53;;;;;;;16.77;6.57;;;;;;;;;;6205900;23;20159;-91
2022/02/01 10:30:04;;;;;;;14.87;6.60;;;;;;;;;;6205676;23;20175;-93
2022/02/01 10:36:40;;;;;;;15.27;5.43;;;;;;;;;;6204971;23;20184;-87
2022/02/01 10:39:48;;;;;;;18.23;6.70;;;;;;;;;;6203307;23;20204;-92
2022/02/01 10:42:55;;;;;;;19.30;6.27;;;;;;;;;;6204365;23;20206;-92
2022/02/01 10:46:07;;;;;;;18.17;6.27;;;;;;;;;;6203896;23;20218;-90
2022/02/01 10:49:12;;;;;;;14.93;4.57;;;;;;;;;;6206364;23;20165;-91
2022/02/01 10:52:20;;;;;;;22.07;4.80;;;;;;;;;;6202445;23;20179;-90
2022/02/01 10:55:25;;;;;;;18.33;4.30;;;;;;;;;;6204034;23;20248;-90
2022/02/01 11:01:52;;;;;;;15.20;4.30;;;;;;;;;;6204285;23;20229;-91
2022/02/01 11:04:58;;;;;;;10.77;4.00;;;;;;;;;;6205402;23;20660;-89
2022/02/01 11:08:07;;;;;;;16.73;3.77;;;;;;;;;;6204827;23;20196;-92
2022/02/01 11:11:18;;;;;;;14.93;3.00;;;;;;;;;;6203393;23;20175;-91
2022/02/01 11:14:35;;;;;;;13.50;3.00;;;;;;;;;;6202605;23;20172;-91
2022/02/01 11:17:44;;;;;;;12.27;2.87;;;;;;;;;;6205182;23;20171;-92
2022/02/01 11:20:51;;;;;;;16.93;3.43;;;;;;;;;;6202884;23;20192;-91
2022/02/01 11:24:00;;;;;;;16.63;2.80;;;;;;;;;;6202701;23;20228;-91
2022/02/01 11:27:15;;;;;;;13.93;2.40;;;;;;;;;;6203358;23;20168;-91
2022/02/01 11:30:21;;;;;;;11.47;2.73;;;;;;;;;;6204621;23;20172;-91
2022/02/01 11:33:36;;;;;;;14.27;2.37;;;;;;;;;;6204500;23;20607;-90
2022/02/01 11:36:42;;;;;;;14.27;2.80;;;;;;;;;;6204094;23;20192;-93
2022/02/01 11:39:53;;;;;;;20.33;2.70;;;;;;;;;;6203336;23;20196;-91
2022/02/01 11:43:00;;;;;;;17.37;2.80;;;;;;;;;;6202773;23;20602;-91
2022/02/01 11:46:07;;;;;;;15.03;3.10;;;;;;;;;;6203779;23;20183;-89
2022/02/01 11:49:23;;;;;;;12.53;2.80;;;;;;;;;;6205273;23;20617;-89
2022/02/01 11:52:29;;;;;;;18.70;2.60;;;;;;;;;;6202050;23;20177;-90
2022/02/01 11:55:37;;;;;;;20.60;3.03;;;;;;;;;;6203478;23;20195;-89
2022/02/01 11:58:45;;;;;;;24.30;3.13;;;;;;;;;;6200648;23;20212;-90
2022/02/01 12:01:51;;;;;;;19.97;3.13;;;;;;;;;;6203899;23;20215;-91
2022/02/01 12:05:06;;;;;;;26.37;3.50;;;;;;;;;;6205919;23;20156;-90
2022/02/01 12:08:14;;;;;;;25.63;2.50;;;;;;;;;;6204433;23;20171;-90
2022/02/01 12:11:21;;;;;;;23.50;2.70;;;;;;;;;;6201289;23;20163;-92
2022/02/01 12:14:27;;;;;;;22.40;3.30;;;;;;;;;;6202869;23;20215;-90
2022/02/01 12:17:33;;;;;;;22.93;2.90;;;;;;;;;;6201440;23;20198;-92
2022/02/01 12:20:39;;;;;;;19.27;3.20;;;;;;;;;;6203394;23;20155;-90
2022/02/01 12:23:47;;;;;;;15.57;2.40;;;;;;;;;;6200384;23;20195;-89
2022/02/01 12:26:54;;;;;;;36.60;7.33;;;;;;;;;;6200021;23;20180;-91
2022/02/01 12:30:00;;;;;;;22.13;5.70;;;;;;;;;;6200650;23;20207;-90
2022/02/01 12:33:05;;;;;;;26.67;4.47;;;;;;;;;;6199076;23;20190;-91
2022/02/01 12:36:11;;;;;;;33.87;6.90;;;;;;;;;;6203008;23;20183;-91
2022/02/01 12:39:20;;;;;;;26.03;3.37;;;;;;;;;;6200277;23;20250;-93
2022/02/01 12:42:37;;;;;;;17.00;3.40;;;;;;;;;;6198419;23;20176;-91
2022/02/01 12:45:53;;;;;;;20.33;4.03;;;;;;;;;;6197770;23;20192;-90
2022/02/01 12:49:03;;;;;;;20.40;3.37;;;;;;;;;;6197721;23;20168;-89
2022/02/01 12:52:17;;;;;;;14.87;2.90;;;;;;;;;;6199079;23;20172;-90
2022/02/01 12:55:24;;;;;;;15.20;4.03;;;;;;;;;;6199306;23;20172;-91
2022/02/01 12:58:30;;;;;;;15.67;3.20;;;;;;;;;;6197593;23;20176;-89
2022/02/01 13:01:37;;;;;;;11.60;2.73;;;;;;;;;;6200333;23;20152;-91
2022/02/01 13:04:42;;;;;;;14.20;3.60;;;;;;;;;;6198920;23;20211;-92
2022/02/01 13:07:50;;;;;;;21.67;3.30;;;;;;;;;;6202003;23;20168;-91
2022/02/01 13:17:58;;;;;;;15.00;3.03;;;;;;;;;;6203040;23;20223;-89
2022/02/01 13:21:04;;;;;;;25.50;5.20;;;;;;;;;;6200570;23;20602;-90
2022/02/01 13:24:11;;;;;;;23.80;3.60;;;;;;;;;;6202612;23;20180;-91
2022/02/01 13:27:17;;;;;;;20.10;3.57;;;;;;;;;;6202153;23;20171;-91
2022/02/01 13:30:24;;;;;;;21.27;3.20;;;;;;;;;;6201689;23;20171;-90
2022/02/01 13:33:30;;;;;;;22.87;3.30;;;;;;;;;;6200375;23;20172;-92
2022/02/01 13:36:46;;;;;;;18.10;3.17;;;;;;;;;;6203343;23;20243;-91
2022/02/01 13:39:52;;;;;;;11.00;2.00;;;;;;;;;;6200342;23;20153;-90
2022/02/01 13:42:58;;;;;;;18.50;2.93;;;;;;;;;;6200608;23;20229;-90
2022/02/01 13:46:05;;;;;;;11.63;2.37;;;;;;;;;;6200761;23;20576;-92
2022/02/01 13:49:11;;;;;;;19.00;3.23;;;;;;;;;;6203050;23;20175;-92
2022/02/01 13:52:21;;;;;;;14.70;2.90;;;;;;;;;;6203483;23;20627;-92
2022/02/01 13:55:28;;;;;;;19.63;3.03;;;;;;;;;;6204825;23;20151;-90
2022/02/01 13:58:34;;;;;;;16.47;2.87;;;;;;;;;;6206291;23;20188;-93
2022/02/01 14:01:42;;;;;;;13.73;2.77;;;;;;;;;;6203188;23;20267;-91
2022/02/01 14:04:53;;;;;;;15.80;3.47;;;;;;;;;;6202669;23;20250;-89
2022/02/01 14:08:18;;;;;;;19.13;3.13;;;;;;;;;;6203306;23;20164;-89
2022/02/01 14:11:47;;;;;;;19.53;3.70;;;;;;;;;;6201578;23;20196;-90
2022/02/01 14:28:53;;;;;;;12.63;2.97;;;;;;;;;;6206069;23;20171;-90
2022/02/01 14:32:10;;;;;;;12.53;3.20;;;;;;;;;;6206333;23;20159;-90
2022/02/01 14:35:18;;;;;;;16.07;2.60;;;;;;;;;;6207779;23;20164;-88
2022/02/01 14:38:45;;;;;;;15.07;3.30;;;;;;;;;;6206671;23;20216;-89
2022/02/01 14:45:14;;;;;;;23.17;4.00;;;;;;;;;;6201324;23;20492;-91
2022/02/01 14:48:19;;;;;;;19.10;3.60;;;;;;;;;;6201331;23;20168;-90
2022/02/01 14:51:27;;;;;;;8.73;2.23;;;;;;;;;;6201592;23;20156;-89
2022/02/01 14:54:35;;;;;;;16.30;3.00;;;;;;;;;;6201610;23;20168;-90
2022/02/01 15:04:43;;;;;;;12.70;2.57;;;;;;;;;;6205071;23;20152;-89
2022/02/01 15:11:20;;;;;;;14.93;3.17;;;;;;;;;;6204043;23;20217;-89
2022/02/01 15:11:28;;;;;;;12.37;2.80;;;;;;;;;;6206621;23;20158;-87
2022/02/01 15:14:37;;;;;;;15.17;3.00;;;;;;;;;;6204574;23;20176;-89
2022/02/01 15:17:51;;;;;;;10.80;2.90;;;;;;;;;;6205064;23;20199;-90
2022/02/01 15:20:56;;;;;;;17.63;2.80;;;;;;;;;;6202910;23;20233;-90
2022/02/01 15:24:04;;;;;;;15.70;3.53;;;;;;;;;;6198837;23;20183;-91
2022/02/01 15:27:10;;;;;;;17.97;3.40;;;;;;;;;;6199635;23;20184;-89
2022/02/01 15:30:15;;;;;;;11.87;3.10;;;;;;;;;;6198593;23;20167;-88
2022/02/01 15:33:21;;;;;;;12.97;3.00;;;;;;;;;;6199641;23;20179;-90
2022/02/01 15:36:32;;;;;;;13.47;3.43;;;;;;;;;;6200522;23;20172;-92
2022/02/01 15:56:57;;;;;;;9.00;3.10;;;;;;;;;;6202433;23;20191;-89
2022/02/01 16:00:04;;;;;;;9.07;3.10;;;;;;;;;;6202187;23;20211;-90
2022/02/01 16:03:19;;;;;;;10.13;3.03;;;;;;;;;;6201080;23;20180;-90
2022/02/01 16:06:29;;;;;;;14.30;3.47;;;;;;;;;;6199673;23;20167;-89
2022/02/01 16:09:42;;;;;;;12.93;4.47;;;;;;;;;;6202635;23;20232;-90
2022/02/01 16:12:53;;;;;;;15.13;4.37;;;;;;;;;;6200244;23;20210;-90
2022/02/01 16:15:58;;;;;;;9.73;3.37;;;;;;;;;;6198525;23;20249;-90
2022/02/01 16:19:04;;;;;;;7.93;3.30;;;;;;;;;;6199190;23;20192;-90
2022/02/01 16:22:08;;;;;;;9.10;3.90;;;;;;;;;;6200388;23;20172;-91
2022/02/01 16:25:16;;;;;;;13.03;4.23;;;;;;;;;;6201214;23;20172;-88
2022/02/01 16:28:22;;;;;;;8.80;3.70;;;;;;;;;;6202086;23;20176;-92
2022/02/01 16:31:31;;;;;;;8.97;3.33;;;;;;;;;;6206096;23;20179;-91
2022/02/01 16:34:36;;;;;;;10.80;3.50;;;;;;;;;;6202522;23;20608;-91
2022/02/01 16:37:42;;;;;;;15.00;3.90;;;;;;;;;;6202292;23;20466;-92
2022/02/01 16:40:48;;;;;;;19.13;4.20;;;;;;;;;;6203588;23;20156;-89
2022/02/01 16:43:56;;;;;;;10.00;3.30;;;;;;;;;;6202083;23;20200;-90
2022/02/01 16:47:02;;;;;;;37.23;11.83;;;;;;;;;;6202986;23;20220;-89
2022/02/01 16:50:11;;;;;;;13.73;4.10;;;;;;;;;;6201644;23;20248;-88
2022/02/01 16:53:29;;;;;;;8.73;3.27;;;;;;;;;;6202684;23;20168;-90
2022/02/01 16:56:41;;;;;;;10.70;3.20;;;;;;;;;;6201442;23;20173;-92
2022/02/01 16:59:48;;;;;;;7.90;3.10;;;;;;;;;;6201066;23;20164;-92
2022/02/01 17:02:54;;;;;;;8.33;2.90;;;;;;;;;;6199423;23;20175;-91
2022/02/01 17:06:01;;;;;;;9.40;2.37;;;;;;;;;;6198370;23;20259;-92
2022/02/01 17:09:11;;;;;;;10.87;2.60;;;;;;;;;;6199980;23;20183;-89
2022/02/01 17:12:28;;;;;;;6.77;2.30;;;;;;;;;;6200039;23;20186;-90
2022/02/01 17:15:54;;;;;;;9.33;2.73;;;;;;;;;;6200607;23;20231;-91
2022/02/01 17:19:14;;;;;;;10.17;2.80;;;;;;;;;;6200417;23;20654;-91
2022/02/01 17:22:18;;;;;;;6.33;2.40;;;;;;;;;;6199959;23;20172;-89
2022/02/01 17:25:24;;;;;;;8.83;2.23;;;;;;;;;;6199122;23;20299;-88
2022/02/01 17:28:30;;;;;;;9.40;2.37;;;;;;;;;;6200410;23;20171;-89
2022/02/01 17:31:37;;;;;;;9.23;2.10;;;;;;;;;;6201242;23;20171;-91
2022/02/01 17:34:43;;;;;;;9.03;2.07;;;;;;;;;;6200890;23;20179;-91
2022/02/01 17:37:48;;;;;;;5.67;1.60;;;;;;;;;;6202771;23;20278;-90
2022/02/01 17:40:53;;;;;;;8.40;2.03;;;;;;;;;;6199022;23;20167;-91
2022/02/01 17:44:00;;;;;;;6.30;2.00;;;;;;;;;;6200889;23;20176;-90
2022/02/01 17:47:10;;;;;;;6.97;2.07;;;;;;;;;;6199837;23;20171;-89
2022/02/01 17:50:15;;;;;;;5.33;1.17;;;;;;;;;;6197708;23;20263;-90
2022/02/01 17:53:22;;;;;;;3.70;1.30;;;;;;;;;;6197861;23;20184;-89
2022/02/01 17:56:29;;;;;;;2.10;1.10;;;;;;;;;;6196604;23;20180;-88
2022/02/01 17:59:35;;;;;;;3.00;1.77;;;;;;;;;;6199408;23;20171;-92
2022/02/01 18:02:42;;;;;;;3.43;1.33;;;;;;;;;;6195500;23;20175;-91
2022/02/01 18:05:48;;;;;;;3.67;1.50;;;;;;;;;;6197147;23;20168;-90
2022/02/01 18:08:54;;;;;;;4.03;1.83;;;;;;;;;;6195569;23;20172;-89
2022/02/01 18:12:13;;;;;;;2.33;1.40;;;;;;;;;;6195867;23;20171;-90
2022/02/01 18:15:31;;;;;;;5.57;1.80;;;;;;;;;;6195333;23;20244;-88
2022/02/01 18:18:38;;;;;;;6.47;1.67;;;;;;;;;;6194908;23;20197;-89
2022/02/01 18:21:46;;;;;;;5.33;1.57;;;;;;;;;;6193879;23;20243;-90
2022/02/01 18:24:52;;;;;;;3.57;1.67;;;;;;;;;;6195875;23;20172;-91
2022/02/01 18:27:57;;;;;;;4.37;1.73;;;;;;;;;;6196463;23;20164;-88
2022/02/01 18:31:02;;;;;;;6.77;1.90;;;;;;;;;;6199389;23;20172;-90
2022/02/01 18:34:10;;;;;;;3.73;1.77;;;;;;;;;;6199486;23;20238;-90
2022/02/01 18:37:17;;;;;;;10.10;3.30;;;;;;;;;;6197064;23;20176;-92
2022/02/01 18:40:23;;;;;;;10.50;3.17;;;;;;;;;;6197464;23;20156;-92
2022/02/01 18:43:34;;;;;;;7.37;2.50;;;;;;;;;;6198108;23;20171;-91
2022/02/01 18:46:46;;;;;;;4.90;1.97;;;;;;;;;;6198298;23;20300;-89
2022/02/01 18:50:01;;;;;;;5.23;1.90;;;;;;;;;;6197069;23;20168;-90
2022/02/01 18:53:22;;;;;;;6.07;2.20;;;;;;;;;;6197465;23;20172;-91
2022/02/01 18:57:02;;;;;;;6.40;2.27;;;;;;;;;;6195859;23;20711;-88
2022/02/01 19:02:56;;;;;;;4.63;2.20;;;;;;;;;;6198509;23;20242;-91
2022/02/01 19:04:17;;;;;;;8.00;2.80;;;;;;;;;;6195778;23;20190;-90
2022/02/01 19:07:34;;;;;;;10.67;3.80;;;;;;;;;;6198078;23;20218;-89
2022/02/01 19:17:44;;;;;;;9.13;3.53;;;;;;;;;;6198811;23;20315;-89
2022/02/01 19:20:51;;;;;;;10.03;4.00;;;;;;;;;;6196814;23;20171;-88
2022/02/01 19:23:59;;;;;;;19.83;6.67;;;;;;;;;;6197106;23;20694;-90
2022/02/01 19:27:05;;;;;;;15.10;5.40;;;;;;;;;;6195579;23;20215;-89
2022/02/01 19:30:11;;;;;;;12.43;4.17;;;;;;;;;;6196758;23;20187;-91
2022/02/01 19:33:19;;;;;;;9.00;3.87;;;;;;;;;;6196691;23;20159;-89
2022/02/01 19:36:25;;;;;;;9.73;3.87;;;;;;;;;;6196428;23;20171;-88
2022/02/01 19:39:32;;;;;;;16.87;5.70;;;;;;;;;;6199608;23;20191;-88
2022/02/01 19:42:42;;;;;;;10.53;3.23;;;;;;;;;;6196398;23;20172;-90
2022/02/01 19:45:47;;;;;;;7.90;3.60;;;;;;;;;;6197847;23;20176;-87
2022/02/01 19:48:55;;;;;;;8.53;3.30;;;;;;;;;;6197119;23;20163;-90
2022/02/01 19:52:00;;;;;;;12.60;4.20;;;;;;;;;;6195724;23;20172;-89
2022/02/01 19:55:07;;;;;;;9.27;4.40;;;;;;;;;;6198122;23;20263;-91
2022/02/01 19:58:13;;;;;;;7.83;3.90;;;;;;;;;;6197046;23;20199;-89
2022/02/01 20:01:20;;;;;;;9.60;3.50;;;;;;;;;;6198052;23;20168;-91
2022/02/01 20:04:27;;;;;;;13.83;4.30;;;;;;;;;;6198846;23;20174;-90
2022/02/01 20:07:33;;;;;;;14.00;4.30;;;;;;;;;;6197703;23;20223;-90
2022/02/01 20:10:42;;;;;;;11.23;4.10;;;;;;;;;;6199648;23;20175;-87
2022/02/01 20:13:48;;;;;;;7.17;2.77;;;;;;;;;;6197065;23;20172;-87
2022/02/01 20:16:53;;;;;;;7.73;3.37;;;;;;;;;;6198970;23;20208;-90
2022/02/01 20:19:59;;;;;;;9.57;3.27;;;;;;;;;;6201493;23;20175;-89
2022/02/01 20:23:06;;;;;;;11.33;4.13;;;;;;;;;;6196793;23;20796;-91
2022/02/01 20:26:13;;;;;;;18.83;4.73;;;;;;;;;;6200435;23;20183;-87
2022/02/01 20:29:19;;;;;;;12.83;4.13;;;;;;;;;;6203502;23;20526;-88
2022/02/01 20:32:31;;;;;;;15.03;5.67;;;;;;;;;;6203634;23;20164;-87
2022/02/01 20:35:38;;;;;;;8.87;4.83;;;;;;;;;;6201472;23;20195;-87
2022/02/01 20:38:46;;;;;;;10.10;5.27;;;;;;;;;;6200829;23;20767;-90
2022/02/01 20:41:55;;;;;;;9.07;4.30;;;;;;;;;;6197567;23;20176;-90
2022/02/01 20:45:01;;;;;;;8.20;4.40;;;;;;;;;;6196615;23;20210;-88
2022/02/01 20:48:06;;;;;;;8.20;3.33;;;;;;;;;;6196744;23;20236;-92
2022/02/01 20:51:11;;;;;;;6.70;3.00;;;;;;;;;;6198118;23;20175;-90
2022/02/01 20:54:16;;;;;;;8.23;3.50;;;;;;;;;;6198733;23;20175;-90
2022/02/01 20:57:23;;;;;;;7.17;3.10;;;;;;;;;;6197897;23;20168;-88
2022/02/01 21:00:29;;;;;;;10.57;2.93;;;;;;;;;;6199135;23;20166;-91
2022/02/01 21:03:34;;;;;;;3.83;2.53;;;;;;;;;;6196360;23;20176;-89
2022/02/01 21:06:39;;;;;;;8.70;2.90;;;;;;;;;;6198151;23;20676;-87
2022/02/01 21:09:49;;;;;;;9.27;3.33;;;;;;;;;;6197337;23;20172;-88
2022/02/01 21:12:56;;;;;;;11.07;3.73;;;;;;;;;;6197234;23;20179;-89
2022/02/01 21:16:03;;;;;;;9.90;3.70;;;;;;;;;;6196705;23;20172;-90